Time;durP1;ratioP1;P1;durP2;ratioP2;P2;SDS_P1;SDS_P2;PMS_P1;PMS_P2;Temp;Humidity;BMP_temperature;BMP_pressure;BME280_temperature;BME280_humidity;BME280_pressure;Samples;Min_cycle;Max_cycle;Signal;HPM_P1;HPM_P2
2022/11/05 00:10:21;;;;;;;0.10;0.10;;;9.80;99.90;;;;;;5041502;28;20621;-75
2022/11/05 00:18:18;;;;;;;0.10;0.10;;;9.70;99.90;;;;;;5040887;28;20609;-76
2022/11/05 00:20:45;;;;;;;0.00;0.00;;;9.70;99.90;;;;;;5038503;28;20618;-76
2022/11/05 00:26:00;;;;;;;0.10;0.10;;;9.60;99.90;;;;;;5033763;28;20639;-76
2022/11/05 00:28:29;;;;;;;0.00;0.00;;;9.60;99.90;;;;;;5040360;28;20641;-75
2022/11/05 00:31:01;;;;;;;0.00;0.00;;;9.60;99.90;;;;;;5040775;28;20619;-76
2022/11/05 00:33:28;;;;;;;0.10;0.10;;;9.60;99.90;;;;;;5048648;28;20629;-76
2022/11/05 00:35:55;;;;;;;0.00;0.00;;;9.60;99.90;;;;;;5041582;28;20724;-76
2022/11/05 00:38:22;;;;;;;0.10;0.10;;;9.60;99.90;;;;;;5040605;28;20641;-77
2022/11/05 00:40:50;;;;;;;0.10;0.10;;;9.60;99.90;;;;;;5039400;28;20630;-76
2022/11/05 00:46:03;;;;;;;0.10;0.10;;;9.60;99.90;;;;;;5042216;28;20609;-76
2022/11/05 00:51:14;;;;;;;0.10;0.10;;;9.60;99.90;;;;;;5041008;28;20727;-76
2022/11/05 00:53:42;;;;;;;0.10;0.10;;;9.60;99.90;;;;;;5048014;28;20720;-76
2022/11/05 00:56:09;;;;;;;0.10;0.10;;;9.50;99.90;;;;;;5041346;28;20613;-76
2022/11/05 00:58:37;;;;;;;0.10;0.10;;;9.50;99.90;;;;;;5040007;28;21255;-76
2022/11/05 01:01:05;;;;;;;0.10;0.10;;;9.50;99.90;;;;;;5038318;28;20657;-75
2022/11/05 01:03:33;;;;;;;0.10;0.10;;;9.50;99.90;;;;;;5037018;28;20669;-77
2022/11/05 01:06:07;;;;;;;0.10;0.10;;;9.40;99.90;;;;;;5040258;28;20609;-76
2022/11/05 01:08:35;;;;;;;0.10;0.10;;;9.40;99.90;;;;;;5038226;28;20633;-77
2022/11/05 01:11:09;;;;;;;0.03;0.03;;;9.40;99.90;;;;;;5038282;28;20234;-76
2022/11/05 01:13:39;;;;;;;0.10;0.10;;;9.30;99.90;;;;;;5038475;28;20629;-76
2022/11/05 01:16:08;;;;;;;0.10;0.10;;;9.20;99.90;;;;;;5040129;28;20605;-76
2022/11/05 01:18:38;;;;;;;0.10;0.10;;;9.20;99.90;;;;;;5037142;28;20638;-76
2022/11/05 01:21:14;;;;;;;0.10;0.10;;;9.10;99.90;;;;;;5049943;28;20713;-76
2022/11/05 01:23:41;;;;;;;0.10;0.10;;;9.10;99.90;;;;;;5045933;28;20660;-77
2022/11/05 01:26:09;;;;;;;0.00;0.00;;;9.00;99.90;;;;;;5037568;28;20622;-76
2022/11/05 01:28:37;;;;;;;0.03;0.03;;;;;;;;;;5038447;28;20684;-76
2022/11/05 01:31:05;;;;;;;0.00;0.00;;;;;;;;;;5036425;28;20633;-76
2022/11/05 01:33:33;;;;;;;0.10;0.10;;;;;;;;;;5048584;28;20629;-76
2022/11/05 01:36:00;;;;;;;0.00;0.00;;;;;;;;;;5039260;28;20621;-76
2022/11/05 01:38:27;;;;;;;0.10;0.10;;;;;;;;;;5037312;28;21025;-76
2022/11/05 01:40:55;;;;;;;0.10;0.10;;;;;;;;;;5037670;28;20635;-75
2022/11/05 01:43:24;;;;;;;0.10;0.10;;;;;;;;;;5038593;28;20631;-76
2022/11/05 01:45:53;;;;;;;0.10;0.10;;;;;;;;;;5038895;28;20652;-77
2022/11/05 01:48:22;;;;;;;0.10;0.10;;;;;;;;;;5036670;28;20641;-77
2022/11/05 01:50:52;;;;;;;0.00;0.00;;;;;;;;;;5039698;28;20659;-76
2022/11/05 01:53:22;;;;;;;0.10;0.10;;;;;;;;;;5029773;28;20666;-77
2022/11/05 01:55:52;;;;;;;0.10;0.10;;;;;;;;;;5039819;28;20616;-76
2022/11/05 01:58:21;;;;;;;0.00;0.00;;;;;;;;;;5038277;28;20813;-77
2022/11/05 02:00:49;;;;;;;0.03;0.03;;;;;;;;;;5039036;28;20235;-76
2022/11/05 02:03:18;;;;;;;0.10;0.10;;;;;;;;;;5037302;28;20638;-76
2022/11/05 02:05:46;;;;;;;0.10;0.10;;;;;;;;;;5045633;28;20633;-76
2022/11/05 02:08:17;;;;;;;0.10;0.10;;;;;;;;;;5047639;28;20629;-76
2022/11/05 02:10:46;;;;;;;0.10;0.10;;;;;;;;;;5043360;28;20744;-75
2022/11/05 02:13:13;;;;;;;0.10;0.10;;;;;;;;;;5038707;28;20645;-76
2022/11/05 02:15:48;;;;;;;0.10;0.10;;;;;;;;;;5036018;28;20622;-76
2022/11/05 02:18:21;;;;;;;0.00;0.00;;;;;;;;;;5038466;28;20613;-76
2022/11/05 02:20:53;;;;;;;0.10;0.10;;;;;;;;;;5034730;28;20634;-75
2022/11/05 02:23:31;;;;;;;0.00;0.00;;;;;;;;;;5037332;28;20629;-77
2022/11/05 02:26:14;;;;;;;0.10;0.10;;;;;;;;;;5027331;28;20685;-75
2022/11/05 02:28:53;;;;;;;0.10;0.10;;;;;;;;;;4981431;28;20665;-76
2022/11/05 02:31:26;;;;;;;0.10;0.10;;;;;;;;;;5031745;28;20673;-75
2022/11/05 02:33:59;;;;;;;0.10;0.10;;;;;;;;;;5038201;28;20622;-76
2022/11/05 02:36:32;;;;;;;0.00;0.00;;;;;;;;;;5037801;28;20654;-76
2022/11/05 02:39:08;;;;;;;0.10;0.10;;;;;;;;;;5038270;28;20634;-76
2022/11/05 02:41:40;;;;;;;0.10;0.10;;;;;;;;;;5037961;28;21361;-76
2022/11/05 02:44:14;;;;;;;0.10;0.10;;;;;;;;;;5048828;28;20646;-77
2022/11/05 02:46:47;;;;;;;0.10;0.10;;;;;;;;;;5039335;28;20610;-77
2022/11/05 02:49:19;;;;;;;0.10;0.10;;;;;;;;;;5047022;28;20625;-77
2022/11/05 02:51:48;;;;;;;0.10;0.10;;;;;;;;;;5037443;28;20641;-77
2022/11/05 02:54:18;;;;;;;0.10;0.10;;;;;;;;;;5038356;28;20716;-76
2022/11/05 02:56:47;;;;;;;0.10;0.10;;;;;;;;;;5036538;28;20664;-76
2022/11/05 02:59:15;;;;;;;0.10;0.10;;;;;;;;;;5036546;28;20634;-76
2022/11/05 03:01:45;;;;;;;0.03;0.03;;;;;;;;;;5037206;28;20696;-76
2022/11/05 03:04:14;;;;;;;0.10;0.10;;;;;;;;;;5038839;28;20689;-77
2022/11/05 03:06:52;;;;;;;0.00;0.00;;;;;;;;;;5035381;28;20626;-76
2022/11/05 03:09:26;;;;;;;0.10;0.10;;;;;;;;;;5036035;28;20625;-77
2022/11/05 03:11:58;;;;;;;0.10;0.10;;;;;;;;;;5036834;28;20664;-77
2022/11/05 03:14:29;;;;;;;0.10;0.10;;;;;;;;;;5039125;28;20604;-76
2022/11/05 03:17:00;;;;;;;0.10;0.10;;;;;;;;;;5037030;28;20663;-76
2022/11/05 03:19:34;;;;;;;0.10;0.10;;;;;;;;;;5048529;28;20645;-75
2022/11/05 03:22:03;;;;;;;0.00;0.00;;;;;;;;;;5037025;28;20657;-76
2022/11/05 03:24:33;;;;;;;0.10;0.10;;;;;;;;;;5047684;28;20685;-77
2022/11/05 03:27:02;;;;;;;0.10;0.10;;;;;;;;;;5044142;28;20637;-76
2022/11/05 03:29:32;;;;;;;0.10;0.10;;;;;;;;;;5037652;28;20621;-76
2022/11/05 03:32:02;;;;;;;0.00;0.00;;;;;;;;;;5037246;28;20751;-77
2022/11/05 03:34:31;;;;;;;0.10;0.10;;;;;;;;;;5040268;28;20597;-76
2022/11/05 03:36:59;;;;;;;0.10;0.10;;;;;;;;;;5039975;28;20626;-76
2022/11/05 03:39:29;;;;;;;0.00;0.00;;;;;;;;;;5042662;28;20621;-77
2022/11/05 03:41:58;;;;;;;0.00;0.00;;;;;;;;;;5041018;28;20716;-76
2022/11/05 03:44:27;;;;;;;0.00;0.00;;;;;;;;;;5036611;28;20708;-77
2022/11/05 03:46:57;;;;;;;0.10;0.10;;;;;;;;;;5047590;28;20629;-76
2022/11/05 03:49:29;;;;;;;0.10;0.10;;;;;;;;;;5035016;28;20625;-75
2022/11/05 03:51:59;;;;;;;0.10;0.10;;;;;;;;;;5039906;28;20748;-76
2022/11/05 03:54:27;;;;;;;0.10;0.10;;;;;;;;;;5042175;28;20647;-77
2022/11/05 03:57:00;;;;;;;0.00;0.00;;;;;;;;;;5040354;28;20621;-77
2022/11/05 03:59:28;;;;;;;0.10;0.10;;;;;;;;;;5041183;28;20644;-75
2022/11/05 04:01:55;;;;;;;0.10;0.10;;;;;;;;;;5042269;28;20636;-77
2022/11/05 04:04:22;;;;;;;0.10;0.10;;;;;;;;;;5041038;28;20665;-77
2022/11/05 04:15:07;;;;;;;0.10;0.10;;;;;;;;;;5036268;28;21281;-77
2022/11/05 04:17:33;;;;;;;0.10;0.10;;;;;;;;;;5040693;28;20637;-77
2022/11/05 04:25:32;;;;;;;0.10;0.10;;;;;;;;;;5041184;28;20653;-77
2022/11/05 04:28:00;;;;;;;0.10;0.10;;;;;;;;;;5032597;28;20625;-78
2022/11/05 04:30:27;;;;;;;0.10;0.10;;;;;;;;;;5048780;28;20627;-77
2022/11/05 04:32:59;;;;;;;0.10;0.10;;;;;;;;;;5041807;28;20656;-78
2022/11/05 04:35:27;;;;;;;0.10;0.10;;;;;;;;;;5041487;28;20617;-77
2022/11/05 04:37:55;;;;;;;0.00;0.00;;;;;;;;;;5040430;28;20703;-77
2022/11/05 04:40:23;;;;;;;0.10;0.10;;;;;;;;;;5041917;28;20617;-78
2022/11/05 04:42:50;;;;;;;0.10;0.10;;;;;;;;;;5042953;28;20637;-76
2022/11/05 04:45:18;;;;;;;0.10;0.10;;;;;;;;;;5042005;28;20650;-77
2022/11/05 04:47:45;;;;;;;0.10;0.10;;;;;;;;;;5044083;28;20655;-77
2022/11/05 04:50:12;;;;;;;0.10;0.10;;;;;;;;;;5041049;28;20621;-77
2022/11/05 04:52:40;;;;;;;0.10;0.10;;;;;;;;;;5036478;28;20653;-77
2022/11/05 04:55:09;;;;;;;0.10;0.10;;;;;;;;;;5042708;28;20618;-77
2022/11/05 04:57:37;;;;;;;0.10;0.10;;;;;;;;;;5031783;28;20676;-77
2022/11/05 05:00:05;;;;;;;0.10;0.10;;;;;;;;;;5041643;28;20632;-77
2022/11/05 05:02:33;;;;;;;0.10;0.10;;;7.40;99.90;;;;;;5040946;28;20665;-77
2022/11/05 05:05:00;;;;;;;0.10;0.10;;;7.20;99.90;;;;;;5041723;28;20650;-77
2022/11/05 05:07:28;;;;;;;0.10;0.10;;;;;;;;;;5040143;28;20666;-76
2022/11/05 05:09:55;;;;;;;0.10;0.10;;;7.20;99.90;;;;;;5039482;28;20658;-77
2022/11/05 05:12:24;;;;;;;0.10;0.10;;;7.20;99.90;;;;;;5040526;28;20756;-77
2022/11/05 05:14:51;;;;;;;0.10;0.10;;;7.20;99.90;;;;;;5039849;28;20667;-78
2022/11/05 05:17:19;;;;;;;0.10;0.10;;;7.10;99.90;;;;;;5040063;28;20633;-77
2022/11/05 05:22:31;;;;;;;0.10;0.10;;;7.10;99.90;;;;;;5040464;28;20681;-77
2022/11/05 05:24:59;;;;;;;0.10;0.10;;;;;;;;;;5041181;28;20653;-78
2022/11/05 05:27:29;;;;;;;0.10;0.10;;;7.00;99.90;;;;;;5033040;28;20629;-77
2022/11/05 05:29:56;;;;;;;0.10;0.10;;;7.00;99.90;;;;;;5033343;28;20668;-77
2022/11/05 05:32:25;;;;;;;0.10;0.10;;;7.10;99.90;;;;;;5041567;28;20752;-77
2022/11/05 05:34:53;;;;;;;0.10;0.10;;;7.00;99.90;;;;;;5040871;28;20648;-78
2022/11/05 05:37:20;;;;;;;0.10;0.10;;;7.00;99.90;;;;;;5039484;28;20706;-76
2022/11/05 05:39:48;;;;;;;0.10;0.10;;;7.00;99.90;;;;;;5038458;28;20610;-76
2022/11/05 05:42:16;;;;;;;0.10;0.10;;;7.00;99.90;;;;;;5046724;28;20665;-76
2022/11/05 05:44:44;;;;;;;0.10;0.10;;;7.00;99.90;;;;;;5046212;28;20748;-76
2022/11/05 05:47:14;;;;;;;0.10;0.10;;;;;;;;;;5038195;28;20633;-76
2022/11/05 05:49:41;;;;;;;0.10;0.10;;;6.90;99.90;;;;;;5037366;28;20633;-76
2022/11/05 05:52:09;;;;;;;0.10;0.10;;;6.90;99.90;;;;;;5049957;28;20672;-76
2022/11/05 05:54:36;;;;;;;0.10;0.10;;;6.90;99.90;;;;;;5038688;28;20633;-76
2022/11/05 05:57:03;;;;;;;0.00;0.00;;;6.90;99.90;;;;;;5037580;28;20622;-76
2022/11/05 05:59:31;;;;;;;0.10;0.10;;;;;;;;;;5039294;28;20621;-76
2022/11/05 06:02:00;;;;;;;0.10;0.10;;;;;;;;;;5039525;28;20734;-76
2022/11/05 06:04:27;;;;;;;0.10;0.10;;;;;;;;;;5037268;28;20641;-76
2022/11/05 06:06:55;;;;;;;0.10;0.10;;;;;;;;;;5038649;28;20728;-76
2022/11/05 06:09:23;;;;;;;0.10;0.10;;;;;;;;;;5038244;28;20638;-76
2022/11/05 06:11:50;;;;;;;0.10;0.10;;;;;;;;;;5038354;28;20629;-76
2022/11/05 06:14:18;;;;;;;0.10;0.10;;;;;;;;;;5036934;28;20638;-77
2022/11/05 06:16:46;;;;;;;0.10;0.10;;;;;;;;;;5036756;28;20618;-76
2022/11/05 06:19:14;;;;;;;0.10;0.10;;;;;;;;;;5039115;28;20733;-76
2022/11/05 06:21:42;;;;;;;0.10;0.10;;;;;;;;;;5038395;28;20661;-76
2022/11/05 06:24:10;;;;;;;0.00;0.00;;;;;;;;;;5038038;28;20721;-76
2022/11/05 06:26:41;;;;;;;0.10;0.10;;;;;;;;;;5047732;28;20661;-76
2022/11/05 06:29:09;;;;;;;0.10;0.10;;;;;;;;;;5036485;28;20618;-76
2022/11/05 06:31:37;;;;;;;0.10;0.10;;;;;;;;;;5039230;28;20724;-76
2022/11/05 06:34:04;;;;;;;0.10;0.10;;;;;;;;;;5038535;28;20630;-76
2022/11/05 06:36:34;;;;;;;0.00;0.00;;;;;;;;;;5037579;28;20729;-76
2022/11/05 06:39:02;;;;;;;0.10;0.10;;;;;;;;;;5031041;28;20629;-76
2022/11/05 06:41:29;;;;;;;0.10;0.10;;;;;;;;;;5039233;28;20681;-76
2022/11/05 06:43:57;;;;;;;0.10;0.10;;;;;;;;;;5037691;28;20729;-77
2022/11/05 06:46:25;;;;;;;0.10;0.10;;;;;;;;;;5037399;28;20666;-76
2022/11/05 06:48:52;;;;;;;0.07;0.07;;;;;;;;;;5038444;28;20725;-76
2022/11/05 06:51:19;;;;;;;0.10;0.10;;;;;;;;;;5037368;28;20657;-76
2022/11/05 06:53:48;;;;;;;0.10;0.10;;;;;;;;;;5035952;28;20622;-75
2022/11/05 06:56:16;;;;;;;0.10;0.10;;;;;;;;;;5035319;28;20621;-76
2022/11/05 06:58:44;;;;;;;0.10;0.10;;;;;;;;;;5031754;28;20626;-76
2022/11/05 07:01:11;;;;;;;0.00;0.00;;;;;;;;;;5037105;28;20665;-76
2022/11/05 07:03:39;;;;;;;0.10;0.10;;;;;;;;;;5037836;28;20625;-77
2022/11/05 07:06:07;;;;;;;0.10;0.10;;;;;;;;;;5037191;28;20677;-74
2022/11/05 07:08:36;;;;;;;0.10;0.10;;;;;;;;;;5038163;28;20760;-77
2022/11/05 07:11:05;;;;;;;0.10;0.10;;;;;;;;;;5029568;28;20652;-75
2022/11/05 07:13:33;;;;;;;0.10;0.10;;;;;;;;;;5037322;28;20624;-76
2022/11/05 07:16:00;;;;;;;0.10;0.10;;;;;;;;;;5038905;28;20602;-75
2022/11/05 07:18:28;;;;;;;0.10;0.10;;;;;;;;;;5037559;28;20633;-76
2022/11/05 07:20:55;;;;;;;0.10;0.10;;;;;;;;;;5027965;28;20634;-76
2022/11/05 07:23:23;;;;;;;0.10;0.10;;;;;;;;;;5037157;28;20657;-76
2022/11/05 07:25:50;;;;;;;0.10;0.10;;;;;;;;;;5037599;28;20658;-76
2022/11/05 07:28:19;;;;;;;0.10;0.10;;;;;;;;;;5046166;28;20622;-76
2022/11/05 07:30:48;;;;;;;0.10;0.10;;;;;;;;;;5036620;28;20644;-76
2022/11/05 07:33:18;;;;;;;0.00;0.00;;;;;;;;;;5036048;28;20630;-75
2022/11/05 07:35:47;;;;;;;0.10;0.10;;;;;;;;;;5037574;28;20614;-77
2022/11/05 07:38:15;;;;;;;0.10;0.10;;;;;;;;;;5038251;28;20650;-75
2022/11/05 07:40:43;;;;;;;0.10;0.10;;;;;;;;;;5029662;28;20741;-76
2022/11/05 07:43:10;;;;;;;0.10;0.10;;;;;;;;;;5044289;28;20653;-76
2022/11/05 07:45:40;;;;;;;0.00;0.00;;;;;;;;;;5032534;28;20654;-76
2022/11/05 07:48:08;;;;;;;0.10;0.10;;;;;;;;;;5033430;28;20609;-75
2022/11/05 07:50:37;;;;;;;0.00;0.00;;;;;;;;;;5034665;28;20638;-76
2022/11/05 07:53:06;;;;;;;0.10;0.10;;;;;;;;;;5033480;28;20661;-76
2022/11/05 07:55:35;;;;;;;0.10;0.10;;;;;;;;;;5033435;28;20636;-75
2022/11/05 07:58:03;;;;;;;0.10;0.10;;;;;;;;;;5027910;28;21041;-76
2022/11/05 08:00:31;;;;;;;0.10;0.10;;;;;;;;;;5034993;28;20690;-76
2022/11/05 08:03:01;;;;;;;0.10;0.10;;;;;;;;;;5036395;28;20753;-78
2022/11/05 08:05:33;;;;;;;0.10;0.10;;;;;;;;;;5036910;28;20683;-75
2022/11/05 08:08:00;;;;;;;0.10;0.10;;;;;;;;;;5033008;28;20744;-77
2022/11/05 08:10:28;;;;;;;0.10;0.10;;;;;;;;;;5038880;28;20633;-75
2022/11/05 08:12:56;;;;;;;0.10;0.10;;;;;;;;;;5033048;28;20642;-76
2022/11/05 08:15:24;;;;;;;0.00;0.00;;;;;;;;;;5034484;28;20644;-75
2022/11/05 08:17:58;;;;;;;0.07;0.07;;;;;;;;;;5033277;28;20623;-76
2022/11/05 08:20:26;;;;;;;0.10;0.10;;;10.50;99.90;;;;;;5037284;28;20613;-76
2022/11/05 08:22:54;;;;;;;0.10;0.10;;;;;;;;;;5039256;28;20664;-75
2022/11/05 08:25:21;;;;;;;0.10;0.10;;;;;;;;;;5038923;28;20658;-76
2022/11/05 08:27:55;;;;;;;0.10;0.10;;;;;;;;;;5038915;28;20653;-75
2022/11/05 08:30:23;;;;;;;0.10;0.10;;;;;;;;;;5038856;28;20695;-76
2022/11/05 08:32:51;;;;;;;0.10;0.10;;;10.80;99.90;;;;;;5040604;28;20658;-76
2022/11/05 08:35:19;;;;;;;0.00;0.00;;;11.10;99.90;;;;;;5039901;28;20638;-75
2022/11/05 08:37:47;;;;;;;0.00;0.00;;;11.30;99.90;;;;;;5041203;28;20624;-76
2022/11/05 08:40:14;;;;;;;0.10;0.10;;;11.30;99.90;;;;;;5039403;28;20621;-76
2022/11/05 08:42:42;;;;;;;0.10;0.10;;;11.40;99.90;;;;;;5041771;28;20637;-76
2022/11/05 08:45:10;;;;;;;0.10;0.10;;;11.50;99.90;;;;;;5039594;28;20687;-75
2022/11/05 08:47:37;;;;;;;0.10;0.10;;;11.50;99.90;;;;;;5040304;28;20661;-76
2022/11/05 08:50:04;;;;;;;0.10;0.10;;;11.60;99.90;;;;;;5032765;28;20625;-76
2022/11/05 08:52:34;;;;;;;0.00;0.00;;;11.70;99.90;;;;;;5039519;28;20676;-76
2022/11/05 08:55:02;;;;;;;0.10;0.10;;;11.70;99.90;;;;;;5031139;28;20633;-76
2022/11/05 08:57:29;;;;;;;0.10;0.10;;;11.80;99.90;;;;;;5039185;28;20701;-76
2022/11/05 08:59:57;;;;;;;0.10;0.10;;;11.90;99.90;;;;;;5036207;28;20617;-76
2022/11/05 09:02:24;;;;;;;0.10;0.10;;;12.00;99.90;;;;;;5038474;28;20223;-75
2022/11/05 09:04:51;;;;;;;0.00;0.00;;;12.00;99.90;;;;;;5036598;28;20222;-75
2022/11/05 09:07:18;;;;;;;0.10;0.10;;;12.10;99.90;;;;;;5037337;28;20726;-75
2022/11/05 09:09:45;;;;;;;0.00;0.00;;;12.30;99.90;;;;;;5030791;28;20302;-75
2022/11/05 09:12:14;;;;;;;0.10;0.10;;;12.20;99.90;;;;;;5030018;28;20243;-74
2022/11/05 09:14:41;;;;;;;5.70;1.97;;;;;;;;;;5044535;28;20214;-75
2022/11/05 09:17:16;;;;;;;0.10;0.10;;;12.40;99.90;;;;;;5039069;28;20231;-75
2022/11/05 09:19:44;;;;;;;0.10;0.10;;;12.40;99.90;;;;;;5048687;28;20278;-77
2022/11/05 09:22:12;;;;;;;0.00;0.00;;;12.50;99.90;;;;;;5028144;28;20299;-77
2022/11/05 09:24:39;;;;;;;0.10;0.10;;;12.50;99.90;;;;;;5026945;28;20196;-78
2022/11/05 09:27:09;;;;;;;0.00;0.00;;;12.50;99.90;;;;;;5033677;28;20310;-80
2022/11/05 09:29:37;;;;;;;0.00;0.00;;;12.60;99.90;;;;;;5033624;28;20203;-77
2022/11/05 09:32:07;;;;;;;0.10;0.10;;;12.60;99.90;;;;;;5035222;28;20242;-77
2022/11/05 09:34:35;;;;;;;0.10;0.10;;;12.60;99.90;;;;;;5035855;28;20211;-77
2022/11/05 09:37:02;;;;;;;0.00;0.00;;;12.60;99.90;;;;;;5046260;28;20196;-79
2022/11/05 09:39:30;;;;;;;0.10;0.10;;;12.60;99.90;;;;;;5039450;28;20204;-78
2022/11/05 09:42:01;;;;;;;0.00;0.00;;;12.80;99.90;;;;;;5029678;28;20265;-78
2022/11/05 09:44:37;;;;;;;0.00;0.00;;;12.90;99.90;;;;;;5036823;28;20203;-76
2022/11/05 09:47:11;;;;;;;0.00;0.00;;;13.00;99.90;;;;;;5037259;28;20225;-76
2022/11/05 09:49:42;;;;;;;0.00;0.00;;;12.90;99.90;;;;;;5030461;28;20202;-77
2022/11/05 09:52:14;;;;;;;0.10;0.10;;;13.00;99.90;;;;;;5037394;28;20215;-77
2022/11/05 09:54:42;;;;;;;0.00;0.00;;;;;;;;;;5037727;28;20199;-77
2022/11/05 09:57:13;;;;;;;0.10;0.10;;;;;;;;;;5038708;28;20278;-75
2022/11/05 09:59:45;;;;;;;0.00;0.00;;;13.00;99.90;;;;;;5034630;28;20203;-77
2022/11/05 10:02:20;;;;;;;0.00;0.00;;;13.30;99.90;;;;;;5039565;28;20346;-78
2022/11/05 10:04:51;;;;;;;0.00;0.00;;;13.30;99.90;;;;;;5030037;28;20200;-78
2022/11/05 10:07:31;;;;;;;0.07;0.07;;;13.40;99.90;;;;;;5038694;28;20340;-79
2022/11/05 10:10:01;;;;;;;0.00;0.00;;;13.40;99.90;;;;;;5028468;28;20310;-76
2022/11/05 10:12:34;;;;;;;0.00;0.00;;;13.50;99.90;;;;;;5039576;28;20223;-76
2022/11/05 10:15:11;;;;;;;0.00;0.00;;;13.60;99.90;;;;;;5038659;28;20214;-77
2022/11/05 10:17:44;;;;;;;0.00;0.00;;;13.60;99.90;;;;;;5046270;28;20293;-75
2022/11/05 10:20:16;;;;;;;0.00;0.00;;;;;;;;;;5036245;28;20282;-77
2022/11/05 10:22:43;;;;;;;0.10;0.10;;;;;;;;;;5046843;28;20261;-76
2022/11/05 10:25:18;;;;;;;0.00;0.00;;;13.70;99.90;;;;;;5038573;28;20257;-76
2022/11/05 10:27:50;;;;;;;0.00;0.00;;;14.00;99.90;;;;;;5034667;28;20218;-75
2022/11/05 10:30:18;;;;;;;0.00;0.00;;;;;;;;;;5037395;28;20249;-77
2022/11/05 10:32:47;;;;;;;0.03;0.03;;;;;;;;;;5036417;28;20257;-76
2022/11/05 10:35:17;;;;;;;0.00;0.00;;;;;;;;;;5036861;28;20195;-76
2022/11/05 10:37:46;;;;;;;0.07;0.07;;;;;;;;;;5031216;28;20653;-77
2022/11/05 10:40:20;;;;;;;0.00;0.00;;;;;;;;;;5038486;28;20270;-75
2022/11/05 10:42:53;;;;;;;0.00;0.00;;;;;;;;;;5033370;28;20223;-78
2022/11/05 10:45:24;;;;;;;0.00;0.00;;;;;;;;;;5034301;28;20200;-76
2022/11/05 10:47:58;;;;;;;0.00;0.00;;;;;;;;;;5034769;28;20313;-76
2022/11/05 10:50:28;;;;;;;0.00;0.00;;;;;;;;;;5035118;28;20213;-77
2022/11/05 10:52:57;;;;;;;0.00;0.00;;;;;;;;;;5034047;28;20316;-76
2022/11/05 10:55:26;;;;;;;0.00;0.00;;;;;;;;;;5034343;28;20199;-76
2022/11/05 10:57:55;;;;;;;0.00;0.00;;;;;;;;;;5034898;28;20203;-75
2022/11/05 11:00:28;;;;;;;0.00;0.00;;;;;;;;;;5034624;28;20259;-75
2022/11/05 11:02:58;;;;;;;0.00;0.00;;;;;;;;;;5033341;28;20322;-76
2022/11/05 11:05:27;;;;;;;0.00;0.00;;;;;;;;;;5020581;28;20236;-76
2022/11/05 11:07:56;;;;;;;0.00;0.00;;;;;;;;;;5025770;28;20215;-76
2022/11/05 11:10:24;;;;;;;0.00;0.00;;;;;;;;;;5034702;28;20292;-74
2022/11/05 11:12:52;;;;;;;0.00;0.00;;;;;;;;;;5052347;28;20234;-75
2022/11/05 11:15:24;;;;;;;0.00;0.00;;;;;;;;;;5025219;28;20210;-77
2022/11/05 11:17:52;;;;;;;0.00;0.00;;;;;;;;;;5034990;28;20297;-77
2022/11/05 11:20:23;;;;;;;0.00;0.00;;;;;;;;;;5033873;28;20219;-77
2022/11/05 11:22:59;;;;;;;0.00;0.00;;;;;;;;;;5033406;28;20216;-75
2022/11/05 11:25:28;;;;;;;0.00;0.00;;;;;;;;;;5035306;28;20233;-74
2022/11/05 11:27:55;;;;;;;0.03;0.03;;;;;;;;;;5030645;28;20222;-76
2022/11/05 11:30:26;;;;;;;0.00;0.00;;;;;;;;;;5026029;28;20207;-76
2022/11/05 11:32:57;;;;;;;0.00;0.00;;;;;;;;;;5022608;28;20232;-76
2022/11/05 11:35:26;;;;;;;0.00;0.00;;;;;;;;;;5031400;28;20206;-75
2022/11/05 11:37:55;;;;;;;0.00;0.00;;;;;;;;;;5018020;28;20211;-76
2022/11/05 11:40:24;;;;;;;0.00;0.00;;;;;;;;;;5035194;28;20280;-76
2022/11/05 11:42:54;;;;;;;0.00;0.00;;;;;;;;;;5034665;28;20227;-75
2022/11/05 11:45:26;;;;;;;0.00;0.00;;;;;;;;;;5034120;28;20665;-74
2022/11/05 11:47:55;;;;;;;0.00;0.00;;;;;;;;;;5035335;28;20241;-75
2022/11/05 11:50:38;;;;;;;0.00;0.00;;;;;;;;;;5029712;28;20210;-76
2022/11/05 11:53:25;;;;;;;0.00;0.00;;;;;;;;;;5024803;28;20665;-76
2022/11/05 11:56:00;;;;;;;0.00;0.00;;;;;;;;;;5033807;28;20199;-75
2022/11/05 11:58:38;;;;;;;0.00;0.00;;;;;;;;;;5032500;28;20202;-79
2022/11/05 12:01:13;;;;;;;0.00;0.00;;;;;;;;;;5034590;28;20317;-79
2022/11/05 12:03:45;;;;;;;0.00;0.00;;;;;;;;;;5037270;28;20205;-77
2022/11/05 12:06:17;;;;;;;0.00;0.00;;;;;;;;;;5036945;28;20303;-77
2022/11/05 12:08:51;;;;;;;0.00;0.00;;;;;;;;;;5029856;28;20192;-78
2022/11/05 12:11:23;;;;;;;0.00;0.00;;;;;;;;;;5039351;28;20222;-77
2022/11/05 12:14:00;;;;;;;0.00;0.00;;;;;;;;;;5051394;28;20294;-78
2022/11/05 12:16:52;;;;;;;0.00;0.00;;;;;;;;;;5040009;28;20199;-75
2022/11/05 12:19:25;;;;;;;0.00;0.00;;;;;;;;;;5014862;28;20253;-74
2022/11/05 12:21:58;;;;;;;0.03;0.03;;;;;;;;;;5047405;28;20237;-75
2022/11/05 12:24:52;;;;;;;0.00;0.00;;;;;;;;;;5039367;28;20205;-80
2022/11/05 12:27:25;;;;;;;0.00;0.00;;;;;;;;;;5032655;28;20207;-75
2022/11/05 12:29:56;;;;;;;0.00;0.00;;;;;;;;;;5039934;28;20196;-78
2022/11/05 12:32:38;;;;;;;0.00;0.00;;;;;;;;;;5036400;28;20246;-75
2022/11/05 12:35:12;;;;;;;0.10;0.10;;;;;;;;;;5010466;28;20286;-76
2022/11/05 12:37:48;;;;;;;0.00;0.00;;;;;;;;;;5040964;28;20218;-76
2022/11/05 12:40:29;;;;;;;0.00;0.00;;;;;;;;;;5050006;28;20681;-76
2022/11/05 12:43:10;;;;;;;0.00;0.00;;;;;;;;;;5038705;28;20322;-80
2022/11/05 12:45:44;;;;;;;0.00;0.00;;;;;;;;;;5034002;28;20205;-74
2022/11/05 12:48:19;;;;;;;0.00;0.00;;;;;;;;;;5036786;28;20223;-75
2022/11/05 12:50:50;;;;;;;0.00;0.00;;;;;;;;;;5037988;28;20202;-75
2022/11/05 12:53:32;;;;;;;0.00;0.00;;;;;;;;;;5039375;28;20204;-76
2022/11/05 12:56:04;;;;;;;0.00;0.00;;;;;;;;;;5040037;28;20201;-74
2022/11/05 12:58:33;;;;;;;0.00;0.00;;;;;;;;;;5039619;28;20290;-76
2022/11/05 13:01:03;;;;;;;0.00;0.00;;;;;;;;;;5039063;28;20289;-75
2022/11/05 13:03:36;;;;;;;0.00;0.00;;;;;;;;;;5037427;28;20291;-75
2022/11/05 13:06:08;;;;;;;0.00;0.00;;;;;;;;;;5046588;28;20200;-73
2022/11/05 13:08:39;;;;;;;0.00;0.00;;;;;;;;;;5035236;28;20305;-74
2022/11/05 13:11:12;;;;;;;0.00;0.00;;;;;;;;;;5039075;28;20203;-75
2022/11/05 13:13:41;;;;;;;0.00;0.00;;;;;;;;;;5032207;28;20641;-74
2022/11/05 13:16:12;;;;;;;0.00;0.00;;;;;;;;;;5038480;28;20291;-75
2022/11/05 13:18:45;;;;;;;0.00;0.00;;;;;;;;;;5040526;28;20213;-76
2022/11/05 13:21:13;;;;;;;0.00;0.00;;;;;;;;;;5037315;28;20269;-75
2022/11/05 13:23:42;;;;;;;0.00;0.00;;;;;;;;;;5039094;28;20207;-75
2022/11/05 13:26:15;;;;;;;0.00;0.00;;;;;;;;;;5038373;28;20203;-76
2022/11/05 13:28:46;;;;;;;0.00;0.00;;;;;;;;;;5041214;28;20323;-75
2022/11/05 13:31:15;;;;;;;0.00;0.00;;;;;;;;;;5039509;28;20223;-75
2022/11/05 13:33:43;;;;;;;0.00;0.00;;;;;;;;;;5037518;28;20234;-74
2022/11/05 13:39:05;;;;;;;0.00;0.00;;;;;;;;;;5046343;28;20213;-75
2022/11/05 13:41:44;;;;;;;0.00;0.00;;;;;;;;;;5037192;28;20234;-73
2022/11/05 13:44:19;;;;;;;0.00;0.00;;;;;;;;;;5041682;28;20207;-75
2022/11/05 13:46:53;;;;;;;0.00;0.00;;;;;;;;;;5046126;28;20205;-76
2022/11/05 13:49:29;;;;;;;0.00;0.00;;;;;;;;;;5038705;28;20204;-76
2022/11/05 13:51:58;;;;;;;0.00;0.00;;;;;;;;;;5030293;28;20312;-78
2022/11/05 13:54:40;;;;;;;0.00;0.00;;;;;;;;;;5041322;28;20214;-78
2022/11/05 13:57:32;;;;;;;0.00;0.00;;;;;;;;;;5048148;28;20211;-77
2022/11/05 14:00:06;;;;;;;0.00;0.00;;;;;;;;;;5016551;28;20253;-78
2022/11/05 14:02:38;;;;;;;0.00;0.00;;;;;;;;;;5038873;28;20375;-78
2022/11/05 14:05:07;;;;;;;0.00;0.00;;;;;;;;;;5039962;28;20229;-78
2022/11/05 14:07:36;;;;;;;0.00;0.00;;;;;;;;;;5036698;28;20327;-78
2022/11/05 14:10:07;;;;;;;0.00;0.00;;;;;;;;;;5037293;28;20254;-78
2022/11/05 14:12:36;;;;;;;0.00;0.00;;;;;;;;;;5047276;28;20318;-78
2022/11/05 14:15:08;;;;;;;0.00;0.00;;;;;;;;;;5037119;28;20203;-78
2022/11/05 14:17:50;;;;;;;0.00;0.00;;;;;;;;;;5044502;28;20200;-78
2022/11/05 14:20:26;;;;;;;0.00;0.00;;;;;;;;;;5030128;28;20231;-75
2022/11/05 14:22:54;;;;;;;0.00;0.00;;;;;;;;;;5039731;28;20225;-75
2022/11/05 14:25:55;;;;;;;0.00;0.00;;;;;;;;;;5037470;28;20202;-74
2022/11/05 14:28:37;;;;;;;0.00;0.00;;;;;;;;;;5036035;28;20696;-76
2022/11/05 14:31:21;;;;;;;0.00;0.00;;;;;;;;;;5043939;28;20196;-74
2022/11/05 14:33:55;;;;;;;0.00;0.00;;;;;;;;;;5027541;28;20313;-75
2022/11/05 14:36:31;;;;;;;0.00;0.00;;;;;;;;;;5025030;28;20229;-75
2022/11/05 14:39:01;;;;;;;0.00;0.00;;;;;;;;;;5041368;28;20199;-77
2022/11/05 14:41:29;;;;;;;0.00;0.00;;;;;;;;;;5031481;28;20232;-76
2022/11/05 14:43:58;;;;;;;0.00;0.00;;;;;;;;;;5025972;28;20294;-76
2022/11/05 14:46:40;;;;;;;0.00;0.00;;;;;;;;;;5029892;28;20215;-76
2022/11/05 14:49:12;;;;;;;0.00;0.00;;;;;;;;;;5030405;28;20229;-78
2022/11/05 14:51:42;;;;;;;0.00;0.00;;;;;;;;;;5039005;28;20226;-75
2022/11/05 14:54:18;;;;;;;0.00;0.00;;;;;;;;;;5018010;28;20215;-75
2022/11/05 14:56:48;;;;;;;0.00;0.00;;;;;;;;;;4994355;28;20254;-76
2022/11/05 14:59:34;;;;;;;0.00;0.00;;;;;;;;;;4989619;28;20203;-77
2022/11/05 15:02:04;;;;;;;0.00;0.00;;;;;;;;;;5006241;28;20222;-76
2022/11/05 15:04:34;;;;;;;0.00;0.00;;;;;;;;;;4987218;28;20198;-77
2022/11/05 15:07:30;;;;;;;0.00;0.00;;;;;;;;;;4976791;28;20193;-76
2022/11/05 15:09:59;;;;;;;0.00;0.00;;;;;;;;;;4979524;28;20267;-78
2022/11/05 15:12:32;;;;;;;0.00;0.00;;;;;;;;;;4978746;28;20221;-75